Sur, Oman
Current Conditions -  °F | °C
As of 11:50 AM on Friday 24 Oct 2014 (Local Time) from OOMS Reporting Station
Few Clouds Few Clouds  
Wind Chill: 88°   Ceiling: Unl
Heat Index: 102°   Visibility: 6mi
Dew Point: 79°   Wind: 8mph
Humidity: 75%   Direction: 350°N
Pressure: 29.88"   Gusts: NA
Location:  22.57°N, 59.55°E
Report Text: OOMS 240750Z 35007KT 320V030 9000 FEW025 31/26 Q1012 NOSIG
Loading
Personal Weather Stations






























Interactive Weather Map
Tropical Storm Tracking
New forecast layout! Learn more

10-Day Weather Forecast

Advertisements
Track Severe Weather on mobile